createdAt,value
2022-12-18T00:00:12.237Z,94670.72
2022-12-18T00:01:20.694Z,94661.88
2022-12-18T00:02:22.277Z,94667.56
2022-12-18T00:03:23.993Z,94668.75
2022-12-18T00:04:26.843Z,94666.97
2022-12-18T00:05:28.427Z,94669.59
2022-12-18T00:06:30.716Z,94669.31
2022-12-18T00:07:32.197Z,94665.22
2022-12-18T00:08:33.741Z,94669.44
2022-12-18T00:09:39.617Z,94666.41
2022-12-18T00:10:42.100Z,94671.13
2022-12-18T00:11:44.196Z,94669.28
2022-12-18T00:12:45.754Z,94671.53
2022-12-18T00:13:47.958Z,94663.06
2022-12-18T00:14:49.472Z,94669.03
2022-12-18T00:15:51.031Z,94673.97
2022-12-18T00:16:53.914Z,94667.72
2022-12-18T00:17:55.388Z,94672.28
2022-12-18T00:19:00.100Z,94673.16
2022-12-18T00:20:01.645Z,94674.53
2022-12-18T00:21:05.946Z,94671.59
2022-12-18T00:22:07.499Z,94669.31
2022-12-18T00:23:09.042Z,94673.63
2022-12-18T00:24:11.352Z,94676.28
2022-12-18T00:25:12.882Z,94673.41
2022-12-18T00:26:17.118Z,94675.69
2022-12-18T00:27:18.611Z,94681.81
2022-12-18T00:28:20.113Z,94680.81
2022-12-18T00:29:21.652Z,94676.97
2022-12-18T00:30:23.133Z,94681.88
2022-12-18T00:31:25.785Z,94683.13
2022-12-18T00:32:29.102Z,94677.84
2022-12-18T00:33:31.115Z,94675.69
2022-12-18T00:34:32.655Z,94672.56
2022-12-18T00:35:34.166Z,94673.41
2022-12-18T00:36:35.722Z,94674.72
2022-12-18T00:37:37.310Z,94677.84
2022-12-18T00:38:39.707Z,94681.13
2022-12-18T00:39:41.962Z,94683.72
2022-12-18T00:40:43.462Z,94688.47
2022-12-18T00:41:45.049Z,94683.69
2022-12-18T00:42:46.580Z,94688.53
2022-12-18T00:43:48.085Z,94688.13
2022-12-18T00:44:49.590Z,94684.13
2022-12-18T00:45:51.397Z,94684.66
2022-12-18T00:46:52.894Z,94686.97
2022-12-18T00:47:56.123Z,94688.84
2022-12-18T00:48:57.927Z,94687.22
2022-12-18T00:49:59.413Z,94688.94
2022-12-18T00:51:00.982Z,94688.06
2022-12-18T00:52:02.543Z,94687.50
2022-12-18T00:53:04.103Z,94688.75
2022-12-18T00:54:05.675Z,94692.00
2022-12-18T00:55:07.980Z,94690.97
2022-12-18T00:56:09.488Z,94697.69
2022-12-18T00:57:11.021Z,94691.81
2022-12-18T00:58:14.123Z,94696.03
2022-12-18T00:59:16.103Z,94692.00
2022-12-18T01:00:17.757Z,94686.53
2022-12-18T01:01:19.530Z,94693.06
2022-12-18T01:02:21.190Z,94694.44
2022-12-18T01:03:24.159Z,94691.97
2022-12-18T01:04:25.669Z,94690.97
2022-12-18T01:05:27.491Z,94690.69
2022-12-18T01:06:29.622Z,94690.50
2022-12-18T01:07:31.306Z,94696.03
2022-12-18T01:08:32.812Z,94689.03
2022-12-18T01:09:34.320Z,94692.78
2022-12-18T01:10:35.921Z,94689.03
2022-12-18T01:11:37.587Z,94691.97
2022-12-18T01:12:39.348Z,94690.41
2022-12-18T01:13:41.479Z,94686.22
2022-12-18T01:14:43.379Z,94692.50
2022-12-18T01:15:49.538Z,94693.81
2022-12-18T01:16:51.139Z,94689.84
2022-12-18T01:17:53.366Z,94702.41
2022-12-18T01:18:56.755Z,94699.00
2022-12-18T01:19:58.270Z,94699.53
2022-12-18T01:20:59.830Z,94705.13
2022-12-18T01:22:01.373Z,94701.59
2022-12-18T01:23:02.889Z,94703.19
2022-12-18T01:24:05.375Z,94704.72
2022-12-18T01:25:07.572Z,94703.25
2022-12-18T01:26:12.363Z,94708.66
2022-12-18T01:27:13.989Z,94706.19
2022-12-18T01:28:15.532Z,94713.59
2022-12-18T01:29:17.149Z,94712.38
2022-12-18T01:30:18.846Z,94714.50
2022-12-18T01:31:22.764Z,94716.63
2022-12-18T01:32:24.361Z,94711.38
2022-12-18T01:33:25.859Z,94718.88
2022-12-18T01:34:28.748Z,94721.91
2022-12-18T01:35:30.269Z,94718.09
2022-12-18T01:36:34.511Z,94717.22
2022-12-18T01:37:36.119Z,94719.94
2022-12-18T01:38:37.667Z,94715.94
2022-12-18T01:39:39.236Z,94715.75
2022-12-18T01:40:49.806Z,94717.28
2022-12-18T01:41:51.328Z,94723.66
2022-12-18T01:42:53.339Z,94716.06
2022-12-18T01:43:56.689Z,94717.41
2022-12-18T01:45:02.349Z,94712.50
2022-12-18T01:46:03.882Z,94719.34
2022-12-18T01:47:05.839Z,94713.94
2022-12-18T01:48:08.917Z,94726.59
2022-12-18T01:49:10.509Z,94729.56
2022-12-18T01:50:16.447Z,94726.38
2022-12-18T01:51:18.600Z,94731.44
2022-12-18T01:52:22.222Z,94729.22
2022-12-18T01:53:24.814Z,94728.75
2022-12-18T01:54:26.342Z,94734.72
2022-12-18T01:55:32.287Z,94732.28
2022-12-18T01:56:33.877Z,94732.59
2022-12-18T01:57:36.077Z,94739.59
2022-12-18T01:58:46.783Z,94735.25
2022-12-18T01:59:52.787Z,94734.75
2022-12-18T02:00:55.500Z,94726.22
2022-12-18T02:01:57.936Z,94726.34
2022-12-18T02:02:59.659Z,94717.47
2022-12-18T02:04:21.012Z,94721.16
2022-12-18T02:05:50.024Z,94717.41
2022-12-18T02:06:56.557Z,94726.28
2022-12-18T02:08:08.306Z,94726.63
2022-12-18T02:09:14.629Z,94726.56
2022-12-18T02:10:22.019Z,94732.41
2022-12-18T02:11:33.816Z,94721.91
2022-12-18T02:12:43.142Z,94716.97
2022-12-18T02:13:52.757Z,94719.25
2022-12-18T02:14:59.851Z,94718.31
2022-12-18T02:16:09.679Z,94708.34
2022-12-18T02:17:17.400Z,94708.94
2022-12-18T02:18:22.895Z,94702.28
2022-12-18T02:19:54.316Z,94707.06
2022-12-18T02:21:06.850Z,94714.97
2022-12-18T02:22:25.875Z,94724.41
2022-12-18T02:23:45.794Z,94712.41
2022-12-18T02:25:04.044Z,94718.72
2022-12-18T02:26:17.477Z,94708.66
2022-12-18T02:27:19.963Z,94705.97
2022-12-18T02:28:27.012Z,94707.06
2022-12-18T02:29:33.720Z,94700.66
2022-12-18T02:30:38.311Z,94700.19
2022-12-18T02:31:46.131Z,94703.53
2022-12-18T02:32:51.861Z,94708.34
2022-12-18T02:33:57.066Z,94708.25
2022-12-18T02:35:00.561Z,94709.56
2022-12-18T02:36:03.633Z,94717.00
2022-12-18T02:37:09.853Z,94719.22
2022-12-18T02:38:12.955Z,94717.50
2022-12-18T02:39:16.496Z,94721.50
2022-12-18T02:40:20.387Z,94715.25
2022-12-18T02:41:24.674Z,94718.72
2022-12-18T02:42:27.141Z,94721.84
2022-12-18T02:43:30.460Z,94718.38
2022-12-18T02:44:31.959Z,94724.56
2022-12-18T02:45:33.640Z,94725.47
2022-12-18T02:46:37.705Z,94719.06
2022-12-18T02:47:41.965Z,94727.94
2022-12-18T02:48:43.828Z,94721.03
2022-12-18T02:49:54.299Z,94718.22
2022-12-18T02:51:04.610Z,94727.44
2022-12-18T02:52:14.226Z,94722.34
2022-12-18T02:53:22.378Z,94718.34
2022-12-18T02:54:53.641Z,94720.47
2022-12-18T02:56:03.620Z,94722.56
2022-12-18T02:57:16.298Z,94718.31
2022-12-18T02:58:21.506Z,94721.31
2022-12-18T02:59:31.577Z,94724.41
2022-12-18T03:00:40.328Z,94720.31
2022-12-18T03:01:50.160Z,94727.53
2022-12-18T03:02:58.763Z,94728.00
2022-12-18T03:04:03.884Z,94725.84
2022-12-18T03:05:12.315Z,94725.44
2022-12-18T03:06:19.740Z,94732.19
2022-12-18T03:07:34.186Z,94732.69
2022-12-18T03:08:40.371Z,94731.56
2022-12-18T03:09:45.642Z,94737.47
2022-12-18T03:10:55.919Z,94736.13
2022-12-18T03:12:03.342Z,94737.81
2022-12-18T03:13:09.824Z,94745.28
2022-12-18T03:14:14.649Z,94740.63
2022-12-18T03:15:20.372Z,94746.63
2022-12-18T03:16:25.872Z,94735.28
2022-12-18T03:17:29.336Z,94735.16
2022-12-18T03:18:35.522Z,94742.38
2022-12-18T03:19:37.931Z,94739.22
2022-12-18T03:20:43.694Z,94733.84
2022-12-18T03:21:48.253Z,94737.78
2022-12-18T03:22:54.354Z,94735.88
2022-12-18T03:23:56.823Z,94735.81
2022-12-18T03:25:01.700Z,94732.53
2022-12-18T03:26:08.525Z,94724.31
2022-12-18T03:27:14.843Z,94722.34
2022-12-18T03:28:22.371Z,94725.97
2022-12-18T03:29:27.835Z,94720.56
2022-12-18T03:30:32.176Z,94722.19
2022-12-18T03:31:33.816Z,94719.22
2022-12-18T03:32:42.086Z,94715.03
2022-12-18T03:33:48.116Z,94722.75
2022-12-18T03:34:52.773Z,94716.84
2022-12-18T03:35:54.542Z,94718.66
2022-12-18T03:36:56.095Z,94723.63
2022-12-18T03:37:57.670Z,94716.97
2022-12-18T03:38:59.550Z,94720.66
2022-12-18T03:40:01.103Z,94718.44
2022-12-18T03:41:12.107Z,94714.06
2022-12-18T03:42:22.537Z,94719.63
2022-12-18T03:43:36.790Z,94723.22
2022-12-18T03:44:45.659Z,94725.72
2022-12-18T03:45:55.369Z,94729.66
2022-12-18T03:47:04.427Z,94730.00
2022-12-18T03:48:10.480Z,94733.31
2022-12-18T03:49:20.641Z,94729.41
2022-12-18T03:50:28.764Z,94732.59
2022-12-18T03:51:41.699Z,94736.53
2022-12-18T03:52:50.507Z,94734.13
2022-12-18T03:53:58.423Z,94727.00
2022-12-18T03:55:01.959Z,94726.03
2022-12-18T03:56:05.736Z,94726.03
2022-12-18T03:57:10.638Z,94721.63
2022-12-18T03:58:18.330Z,94729.97
2022-12-18T03:59:22.892Z,94732.66
2022-12-18T04:00:24.426Z,94729.44
2022-12-18T04:01:31.808Z,94734.63
2022-12-18T04:02:35.893Z,94728.28
2022-12-18T04:03:39.796Z,94737.31
2022-12-18T04:04:43.880Z,94736.84
2022-12-18T04:05:48.803Z,94735.66
2022-12-18T04:06:51.931Z,94739.06
2022-12-18T04:07:55.357Z,94741.31
2022-12-18T04:08:58.404Z,94733.03
2022-12-18T04:10:02.668Z,94735.16
2022-12-18T04:11:04.497Z,94735.47
2022-12-18T04:12:07.473Z,94738.63
2022-12-18T04:13:10.486Z,94748.84
2022-12-18T04:14:17.679Z,94745.09
2022-12-18T04:15:20.979Z,94741.69
2022-12-18T04:16:22.528Z,94737.97
2022-12-18T04:17:24.085Z,94745.88
2022-12-18T04:18:25.679Z,94741.16
2022-12-18T04:19:27.332Z,94752.97
2022-12-18T04:20:28.831Z,94752.00
2022-12-18T04:21:30.353Z,94742.47
2022-12-18T04:22:31.883Z,94746.09
2022-12-18T04:23:33.404Z,94735.81
2022-12-18T04:24:59.617Z,94747.75
2022-12-18T04:26:01.140Z,94741.28
2022-12-18T04:27:02.692Z,94746.44
2022-12-18T04:28:04.389Z,94750.97
2022-12-18T04:29:05.926Z,94748.72
2022-12-18T04:30:08.420Z,94749.44
2022-12-18T04:31:11.311Z,94743.38
2022-12-18T04:32:12.856Z,94747.19
2022-12-18T04:33:14.819Z,94752.25
2022-12-18T04:34:16.528Z,94754.25
2022-12-18T04:35:19.036Z,94751.84
2022-12-18T04:36:20.545Z,94754.94
2022-12-18T04:37:22.018Z,94755.50
2022-12-18T04:38:23.561Z,94753.22
2022-12-18T04:39:25.170Z,94751.47
2022-12-18T04:40:27.351Z,94750.56
2022-12-18T04:41:28.852Z,94754.69
2022-12-18T04:42:30.407Z,94753.19
2022-12-18T04:43:31.936Z,94753.41
2022-12-18T04:44:33.482Z,94747.28
2022-12-18T04:45:35.220Z,94746.69
2022-12-18T04:46:38.121Z,94749.41
2022-12-18T04:47:39.675Z,94752.25
2022-12-18T04:48:41.327Z,94749.75
2022-12-18T04:49:42.824Z,94752.63
2022-12-18T04:50:50.510Z,94758.50
2022-12-18T04:51:52.064Z,94753.38
2022-12-18T04:52:53.998Z,94752.81
2022-12-18T04:53:55.514Z,94752.59
2022-12-18T04:54:57.035Z,94753.88
2022-12-18T04:56:06.479Z,94759.47
2022-12-18T04:57:08.005Z,94760.16
2022-12-18T04:58:09.518Z,94765.28
2022-12-18T04:59:11.221Z,94763.56
2022-12-18T05:00:13.623Z,94768.44
2022-12-18T05:01:16.929Z,94777.56
2022-12-18T05:02:19.981Z,94771.47
2022-12-18T05:03:21.666Z,94771.00
2022-12-18T05:04:23.337Z,94771.25
2022-12-18T05:05:24.907Z,94763.81
2022-12-18T05:06:26.475Z,94764.91
2022-12-18T05:07:28.020Z,94766.78
2022-12-18T05:08:29.529Z,94768.34
2022-12-18T05:09:31.071Z,94771.72
2022-12-18T05:10:38.097Z,94763.09
2022-12-18T05:11:40.056Z,94770.38
2022-12-18T05:12:41.563Z,94769.59
2022-12-18T05:13:44.055Z,94771.00
2022-12-18T05:14:50.782Z,94774.47
2022-12-18T05:15:53.570Z,94766.00
2022-12-18T05:17:00.559Z,94766.81
2022-12-18T05:18:04.942Z,94770.22
2022-12-18T05:19:06.486Z,94777.03
2022-12-18T05:20:08.846Z,94773.94
2022-12-18T05:21:10.382Z,94773.50
2022-12-18T05:22:12.833Z,94768.56
2022-12-18T05:23:14.367Z,94772.53
2022-12-18T05:24:16.048Z,94784.53
2022-12-18T05:25:18.314Z,94775.50
2022-12-18T05:26:20.144Z,94775.09
2022-12-18T05:27:21.654Z,94772.56
2022-12-18T05:28:24.415Z,94776.59
2022-12-18T05:29:26.011Z,94774.81
2022-12-18T05:30:27.515Z,94784.69
2022-12-18T05:31:29.145Z,94782.16
2022-12-18T05:32:30.705Z,94790.25
2022-12-18T05:33:35.085Z,94783.69
2022-12-18T05:34:36.569Z,94787.78
2022-12-18T05:35:38.060Z,94783.44
2022-12-18T05:36:39.565Z,94790.16
2022-12-18T05:37:43.173Z,94782.66
2022-12-18T05:38:45.181Z,94791.78
2022-12-18T05:39:46.677Z,94790.97
2022-12-18T05:40:48.923Z,94791.47
2022-12-18T05:41:50.416Z,94787.16
2022-12-18T05:42:51.924Z,94783.72
2022-12-18T05:43:53.451Z,94786.66
2022-12-18T05:44:54.986Z,94777.16
2022-12-18T05:45:57.181Z,94776.56
2022-12-18T05:46:58.750Z,94773.13
2022-12-18T05:48:00.345Z,94767.63
2022-12-18T05:49:03.207Z,94769.66
2022-12-18T05:50:05.829Z,94780.91
2022-12-18T05:51:08.989Z,94786.66
2022-12-18T05:52:10.553Z,94788.47
2022-12-18T05:53:12.808Z,94793.78
2022-12-18T05:54:14.330Z,94789.84
2022-12-18T05:55:15.934Z,94785.53
2022-12-18T05:56:19.880Z,94779.13
2022-12-18T05:57:21.373Z,94785.47
2022-12-18T05:58:22.864Z,94783.19
2022-12-18T05:59:24.563Z,94787.09
2022-12-18T06:00:26.052Z,94789.16
2022-12-18T06:01:27.835Z,94790.44
2022-12-18T06:02:29.491Z,94791.59
2022-12-18T06:03:34.091Z,94785.91
2022-12-18T06:04:37.101Z,94787.09
2022-12-18T06:05:40.488Z,94794.09
2022-12-18T06:06:42.203Z,94790.31
2022-12-18T06:07:43.712Z,94794.72
2022-12-18T06:08:46.715Z,94791.47
2022-12-18T06:09:48.505Z,94791.22
2022-12-18T06:10:53.570Z,94798.00
2022-12-18T06:11:55.089Z,94793.84
2022-12-18T06:12:56.559Z,94794.47
2022-12-18T06:13:59.313Z,94798.13
2022-12-18T06:15:01.672Z,94794.94
2022-12-18T06:16:04.305Z,94795.19
2022-12-18T06:17:05.900Z,94799.25
2022-12-18T06:18:07.433Z,94795.81
2022-12-18T06:19:08.937Z,94797.81
2022-12-18T06:20:11.961Z,94792.41
2022-12-18T06:21:13.510Z,94789.03
2022-12-18T06:22:15.004Z,94795.31
2022-12-18T06:23:16.576Z,94797.31
2022-12-18T06:24:18.095Z,94798.38
2022-12-18T06:25:19.663Z,94799.66
2022-12-18T06:26:27.585Z,94797.44
2022-12-18T06:27:29.713Z,94797.94
2022-12-18T06:28:31.349Z,94792.44
2022-12-18T06:29:32.823Z,94799.97
2022-12-18T06:30:34.405Z,94799.34
2022-12-18T06:31:35.957Z,94795.16
2022-12-18T06:32:37.509Z,94802.66
2022-12-18T06:33:39.699Z,94797.34
2022-12-18T06:34:41.550Z,94799.41
2022-12-18T06:35:44.394Z,94806.75
2022-12-18T06:36:45.949Z,94803.53
2022-12-18T06:37:47.442Z,94805.00
2022-12-18T06:38:48.909Z,94801.72
2022-12-18T06:39:50.382Z,94805.75
2022-12-18T06:40:51.903Z,94796.47
2022-12-18T06:41:53.604Z,94810.53
2022-12-18T06:42:55.180Z,94805.19
2022-12-18T06:44:00.027Z,94802.06
2022-12-18T06:45:01.902Z,94808.63
2022-12-18T06:46:04.806Z,94802.13
2022-12-18T06:47:06.405Z,94803.00
2022-12-18T06:48:07.920Z,94803.28
2022-12-18T06:49:09.453Z,94806.78
2022-12-18T06:50:11.366Z,94806.31
2022-12-18T06:51:17.122Z,94815.28
2022-12-18T06:52:18.613Z,94803.41
2022-12-18T06:53:20.170Z,94815.06
2022-12-18T06:54:21.746Z,94813.38
2022-12-18T06:55:24.046Z,94819.25
2022-12-18T06:56:25.531Z,94818.59
2022-12-18T06:57:27.038Z,94822.69
2022-12-18T06:58:29.120Z,94828.16
2022-12-18T06:59:30.660Z,94819.47
2022-12-18T07:00:32.176Z,94820.69
2022-12-18T07:01:33.797Z,94822.63
2022-12-18T07:02:35.596Z,94821.09
2022-12-18T07:03:38.212Z,94821.03
2022-12-18T07:04:40.015Z,94819.94
2022-12-18T07:05:41.893Z,94826.16
2022-12-18T07:06:44.797Z,94829.38
2022-12-18T07:07:46.374Z,94828.03
2022-12-18T07:08:49.551Z,94827.97
2022-12-18T07:09:51.098Z,94824.38
2022-12-18T07:10:56.066Z,94828.88
2022-12-18T07:11:58.059Z,94825.22
2022-12-18T07:12:59.660Z,94828.53
2022-12-18T07:14:01.288Z,94824.03
2022-12-18T07:15:03.176Z,94833.63
2022-12-18T07:16:15.957Z,94822.94
2022-12-18T07:17:22.891Z,94831.03
2022-12-18T07:18:24.455Z,94832.00
2022-12-18T07:19:29.892Z,94835.09
2022-12-18T07:20:32.376Z,94830.59
2022-12-18T07:21:33.865Z,94836.88
2022-12-18T07:22:36.712Z,94833.09
2022-12-18T07:23:38.833Z,94837.06
2022-12-18T07:24:40.518Z,94834.53
2022-12-18T07:25:42.010Z,94842.91
2022-12-18T07:26:43.490Z,94842.00
2022-12-18T07:27:45.026Z,94838.16
2022-12-18T07:28:47.176Z,94843.38
2022-12-18T07:29:48.723Z,94838.94
2022-12-18T07:30:50.192Z,94843.31
2022-12-18T07:31:51.854Z,94846.94
2022-12-18T07:32:53.440Z,94847.16
2022-12-18T07:33:55.313Z,94845.47
2022-12-18T07:34:56.848Z,94849.97
2022-12-18T07:35:59.624Z,94852.84
2022-12-18T07:37:01.156Z,94847.41
2022-12-18T07:38:04.012Z,94860.47
2022-12-18T07:39:05.669Z,94858.16
2022-12-18T07:40:08.704Z,94864.94
2022-12-18T07:41:12.353Z,94869.81
2022-12-18T07:42:13.855Z,94866.66
2022-12-18T07:43:15.380Z,94860.91
2022-12-18T07:44:16.899Z,94864.72
2022-12-18T07:45:18.466Z,94863.28
2022-12-18T07:46:20.316Z,94860.44
2022-12-18T07:47:21.879Z,94865.38
2022-12-18T07:48:23.453Z,94869.88
2022-12-18T07:49:24.952Z,94868.41
2022-12-18T07:50:26.497Z,94868.22
2022-12-18T07:51:27.997Z,94859.69
2022-12-18T07:52:29.523Z,94867.16
2022-12-18T07:53:33.304Z,94872.34
2022-12-18T07:54:34.829Z,94863.44
2022-12-18T07:55:59.957Z,94870.03
2022-12-18T07:56:57.840Z,94871.84
2022-12-18T07:58:02.422Z,94877.06
2022-12-18T07:59:03.921Z,94875.66
2022-12-18T08:00:06.794Z,94881.84
2022-12-18T08:01:10.766Z,94874.13
2022-12-18T08:02:13.242Z,94881.06
2022-12-18T08:03:14.965Z,94874.66
2022-12-18T08:04:16.675Z,94884.75
2022-12-18T08:05:18.389Z,94879.94
2022-12-18T08:06:22.433Z,94875.88
2022-12-18T08:07:26.055Z,94880.75
2022-12-18T08:08:27.685Z,94876.94
2022-12-18T08:09:30.557Z,94875.09
2022-12-18T08:10:32.196Z,94884.13
2022-12-18T08:11:33.712Z,94881.28
2022-12-18T08:12:35.260Z,94879.97
2022-12-18T08:13:37.098Z,94879.97
2022-12-18T08:14:38.730Z,94874.34
2022-12-18T08:15:40.250Z,94878.28
2022-12-18T08:16:41.800Z,94875.13
2022-12-18T08:17:43.397Z,94877.81
2022-12-18T08:18:45.007Z,94866.03
2022-12-18T08:19:46.498Z,94876.66
2022-12-18T08:20:47.996Z,94864.03
2022-12-18T08:21:55.377Z,94869.94
2022-12-18T08:22:56.895Z,94871.50
2022-12-18T08:24:00.631Z,94870.84
2022-12-18T08:25:04.172Z,94871.66
2022-12-18T08:26:06.950Z,94871.34
2022-12-18T08:28:29.987Z,94882.91
2022-12-18T08:29:31.486Z,94877.91
2022-12-18T08:30:33.105Z,94871.13
2022-12-18T08:31:34.713Z,94878.78
2022-12-18T08:32:36.293Z,94880.53
2022-12-18T08:33:40.336Z,94884.34
2022-12-18T08:34:42.996Z,94879.56
2022-12-18T08:35:46.110Z,94883.66
2022-12-18T08:37:00.220Z,94889.72
2022-12-18T08:38:01.751Z,94897.00
2022-12-18T08:39:03.541Z,94893.22
2022-12-18T08:40:08.502Z,94892.53
2022-12-18T08:41:13.437Z,94887.94
2022-12-18T08:42:14.900Z,94890.59
2022-12-18T08:43:16.461Z,94885.50
2022-12-18T08:44:17.948Z,94882.63
2022-12-18T08:45:19.496Z,94879.88
2022-12-18T08:46:22.980Z,94885.53
2022-12-18T08:47:24.608Z,94883.84
2022-12-18T08:48:26.145Z,94880.84
2022-12-18T08:49:27.675Z,94878.75
2022-12-18T08:50:29.203Z,94877.13
2022-12-18T08:51:30.746Z,94874.50
2022-12-18T08:52:33.100Z,94880.94
2022-12-18T08:53:35.933Z,94877.94
2022-12-18T08:54:37.577Z,94876.88
2022-12-18T08:55:40.428Z,94871.47
2022-12-18T08:56:41.962Z,94868.47
2022-12-18T08:57:43.483Z,94874.66
2022-12-18T08:58:45.596Z,94871.13
2022-12-18T08:59:47.075Z,94878.72
2022-12-18T09:00:48.590Z,94869.19
2022-12-18T09:01:50.388Z,94875.56
2022-12-18T09:02:52.093Z,94889.78
2022-12-18T09:03:53.674Z,94884.75
2022-12-18T09:04:57.508Z,94878.59
2022-12-18T09:05:59.687Z,94884.19
2022-12-18T09:07:01.257Z,94886.91
2022-12-18T09:08:02.841Z,94889.16
2022-12-18T09:09:04.970Z,94889.38
2022-12-18T09:10:07.360Z,94889.31
2022-12-18T09:11:15.196Z,94884.38
2022-12-18T09:12:16.744Z,94883.41
2022-12-18T09:13:18.873Z,94887.59
2022-12-18T09:14:20.484Z,94889.56
2022-12-18T09:15:22.087Z,94885.84
2022-12-18T09:16:30.382Z,94895.00
2022-12-18T09:17:33.702Z,94901.13
2022-12-18T09:18:35.181Z,94895.00
2022-12-18T09:19:36.680Z,94893.03
2022-12-18T09:20:38.478Z,94896.69
2022-12-18T09:21:42.248Z,94888.28
2022-12-18T09:22:47.729Z,94888.28
2022-12-18T09:23:50.946Z,94890.00
2022-12-18T09:25:20.450Z,94880.09
2022-12-18T09:26:24.490Z,94889.78
2022-12-18T09:27:25.986Z,94878.97
2022-12-18T09:28:27.546Z,94876.59
2022-12-18T09:29:29.060Z,94876.94
2022-12-18T09:30:30.716Z,94873.53
2022-12-18T09:31:32.303Z,94875.63
2022-12-18T09:32:33.829Z,94876.44
2022-12-18T09:33:35.569Z,94880.63
2022-12-18T09:34:37.040Z,94877.00
2022-12-18T09:35:42.923Z,94882.88
2022-12-18T09:36:44.498Z,94878.50
2022-12-18T09:37:45.978Z,94875.63
2022-12-18T09:38:47.642Z,94885.13
2022-12-18T09:39:49.137Z,94885.50
2022-12-18T09:40:54.597Z,94885.00
2022-12-18T09:41:59.210Z,94888.25
2022-12-18T09:43:04.966Z,94887.03
2022-12-18T09:44:17.955Z,94881.66
2022-12-18T09:45:19.702Z,94883.53
2022-12-18T09:46:28.202Z,94886.47
2022-12-18T09:47:35.244Z,94883.66
2022-12-18T09:48:41.652Z,94885.50
2022-12-18T09:49:44.959Z,94884.63
2022-12-18T09:50:48.004Z,94886.50
2022-12-18T09:51:53.812Z,94892.91
2022-12-18T09:52:58.843Z,94892.72
2022-12-18T09:54:08.948Z,94886.50
2022-12-18T09:55:16.264Z,94889.16
2022-12-18T09:56:20.094Z,94886.09
2022-12-18T09:57:25.001Z,94886.50
2022-12-18T09:58:32.557Z,94883.69
2022-12-18T09:59:53.972Z,94881.31
2022-12-18T10:00:56.400Z,94879.56
2022-12-18T10:01:58.059Z,94873.91
2022-12-18T10:03:04.377Z,94879.47
2022-12-18T10:04:09.601Z,94879.75
2022-12-18T10:05:14.253Z,94875.84
2022-12-18T10:06:21.143Z,94869.28
2022-12-18T10:07:31.739Z,94869.06
2022-12-18T10:08:44.219Z,94870.97
2022-12-18T10:09:57.022Z,94875.63
2022-12-18T10:11:06.675Z,94870.78
2022-12-18T10:12:14.622Z,94875.16
2022-12-18T10:13:32.655Z,94875.84
2022-12-18T10:14:42.257Z,94875.31
2022-12-18T10:15:58.479Z,94869.69
2022-12-18T10:17:06.447Z,94871.84
2022-12-18T10:18:23.686Z,94864.13
2022-12-18T10:19:37.921Z,94866.81
2022-12-18T10:20:44.254Z,94861.00
2022-12-18T10:21:54.611Z,94852.03
2022-12-18T10:23:02.007Z,94858.00
2022-12-18T10:24:15.531Z,94856.47
2022-12-18T10:25:46.443Z,94858.09
2022-12-18T10:26:48.463Z,94854.13
2022-12-18T10:27:54.129Z,94853.22
2022-12-18T10:29:05.280Z,94854.25
2022-12-18T10:30:14.701Z,94846.63
2022-12-18T10:31:18.574Z,94843.50
2022-12-18T10:32:22.269Z,94846.75
2022-12-18T10:33:25.677Z,94842.41
2022-12-18T10:34:27.245Z,94838.19
2022-12-18T10:35:28.889Z,94845.78
2022-12-18T10:36:30.579Z,94845.84
2022-12-18T10:37:32.132Z,94853.97
2022-12-18T10:38:34.081Z,94858.69
2022-12-18T10:39:35.601Z,94859.00
2022-12-18T10:40:50.504Z,94869.31
2022-12-18T10:41:52.083Z,94860.47
2022-12-18T10:43:05.668Z,94870.78
2022-12-18T10:44:18.744Z,94858.22
2022-12-18T10:45:20.285Z,94862.97
2022-12-18T10:46:22.063Z,94869.16
2022-12-18T10:47:23.602Z,94869.66
2022-12-18T10:48:25.591Z,94871.94
2022-12-18T10:49:29.698Z,94877.91
2022-12-18T10:51:08.642Z,94871.56
2022-12-18T10:52:08.180Z,94875.38
2022-12-18T10:53:20.103Z,94877.56
2022-12-18T10:54:24.672Z,94872.09
2022-12-18T10:55:30.754Z,94870.50
2022-12-18T10:56:35.516Z,94866.63
2022-12-18T10:57:38.945Z,94869.16
2022-12-18T10:58:41.095Z,94878.50
2022-12-18T10:59:52.077Z,94876.31
2022-12-18T11:01:09.533Z,94869.72
2022-12-18T11:02:27.632Z,94865.63
2022-12-18T11:03:33.092Z,94866.31
2022-12-18T11:04:34.689Z,94859.69
2022-12-18T11:05:36.455Z,94869.09
2022-12-18T11:06:54.373Z,94871.66
2022-12-18T11:07:56.663Z,94861.91
2022-12-18T11:09:00.987Z,94864.06
2022-12-18T11:10:02.752Z,94865.78
2022-12-18T11:11:08.148Z,94868.91
2022-12-18T11:12:17.719Z,94866.47
2022-12-18T11:13:21.684Z,94871.91
2022-12-18T11:14:25.897Z,94873.78
2022-12-18T11:15:31.236Z,94876.84
2022-12-18T11:16:37.369Z,94872.94
2022-12-18T11:17:40.048Z,94877.44
2022-12-18T11:18:42.093Z,94886.09
2022-12-18T11:19:44.026Z,94884.63
2022-12-18T11:20:56.898Z,94881.22
2022-12-18T11:22:01.602Z,94874.31
2022-12-18T11:23:05.429Z,94875.38
2022-12-18T11:24:21.328Z,94871.69
2022-12-18T11:25:33.195Z,94866.94
2022-12-18T11:26:36.295Z,94864.06
2022-12-18T11:27:39.210Z,94868.19
2022-12-18T11:28:43.299Z,94864.84
2022-12-18T11:29:46.865Z,94865.91
2022-12-18T11:30:49.902Z,94869.31
2022-12-18T11:31:51.411Z,94867.56
2022-12-18T11:33:01.327Z,94864.88
2022-12-18T11:34:28.724Z,94864.59
2022-12-18T11:35:47.923Z,94866.72
2022-12-18T11:36:49.654Z,94864.81
2022-12-18T11:37:57.168Z,94866.72
2022-12-18T11:39:02.790Z,94864.59
2022-12-18T11:40:11.358Z,94863.44
2022-12-18T11:41:22.409Z,94856.38
2022-12-18T11:42:33.646Z,94851.56
2022-12-18T11:43:42.010Z,94853.44
2022-12-18T11:44:49.111Z,94845.22
2022-12-18T11:45:55.788Z,94850.50
2022-12-18T11:47:02.540Z,94845.44
2022-12-18T11:48:13.899Z,94845.56
2022-12-18T11:49:18.095Z,94846.25
2022-12-18T11:50:24.550Z,94841.13
2022-12-18T11:51:31.007Z,94837.56
2022-12-18T11:52:38.877Z,94841.59
2022-12-18T11:53:40.402Z,94829.34
2022-12-18T11:54:42.029Z,94831.47
2022-12-18T11:55:52.989Z,94832.63
2022-12-18T11:56:59.488Z,94829.88
2022-12-18T11:58:09.730Z,94836.03
2022-12-18T11:59:20.443Z,94828.72
2022-12-18T12:00:24.074Z,94823.78
2022-12-18T12:01:44.344Z,94827.47
2022-12-18T12:03:13.527Z,94819.50
2022-12-18T12:04:34.982Z,94824.69
2022-12-18T12:05:49.579Z,94814.38
2022-12-18T12:07:03.219Z,94818.63
2022-12-18T12:08:12.736Z,94821.63
2022-12-18T12:09:21.439Z,94813.56
2022-12-18T12:10:38.776Z,94808.75
2022-12-18T12:11:49.252Z,94808.19
2022-12-18T12:13:04.263Z,94809.94
2022-12-18T12:14:19.986Z,94806.06
2022-12-18T12:15:35.462Z,94813.56
2022-12-18T12:16:46.489Z,94808.19
2022-12-18T12:17:55.318Z,94816.97
2022-12-18T12:19:23.401Z,94805.38
2022-12-18T12:20:38.907Z,94808.28
2022-12-18T12:21:42.575Z,94809.84
2022-12-18T12:22:53.473Z,94807.94
2022-12-18T12:24:03.232Z,94807.56
2022-12-18T12:25:24.381Z,94804.34
2022-12-18T12:26:35.262Z,94809.00
2022-12-18T12:27:47.267Z,94803.94
2022-12-18T12:29:20.816Z,94800.16
2022-12-18T12:30:32.957Z,94793.00
2022-12-18T12:31:52.159Z,94789.34
2022-12-18T12:33:10.907Z,94795.44
2022-12-18T12:34:19.196Z,94794.34
2022-12-18T12:35:35.090Z,94794.16
2022-12-18T12:36:47.306Z,94794.09
2022-12-18T12:38:01.341Z,94795.31
2022-12-18T12:39:08.360Z,94789.47
2022-12-18T12:40:48.421Z,94789.88
2022-12-18T12:41:37.839Z,94789.72